METAR Data
IDs: Format: Raw Decoded Include TAF

Data at: 1211 UTC 07 Oct 2022

KSWF 071145Z 25006KT 10SM SCT080 13/12 A2996